Flight Track Log - Related Links

Times and Time Zones

All times are in EDT time to prevent confusion due to time zone crossing. See the UAL505 flight status page for this flight to view local times or setup timezone preferences in your user account.

Time Position Orientation Groundspeed Altitude Reporting Facility
EDT Latitude Longitude Course Direction KTS MPH feet Rate Location/Type
Sat 07:20:03 PM 38.9333 -77.5167 303° West 155 178 1,900  Level Potomac TRACON
Sat 07:21:03 PM 38.9167 -77.5667 247° West 202 232 4,300 2,900 Climbing Potomac TRACON
Sat 07:22:03 PM 38.9000 -77.6500 256° West 235 270 7,700 3,267 Climbing Potomac TRACON
Sat 07:22:44 PM 38.9003 -77.6847 271° West 233 268 9,800 3,861 Climbing Washington Center
Sat 07:23:44 PM 38.8883 -77.7892 262° West 241 277 14,200 3,360 Climbing Washington Center
Sat 07:24:00 PM 38.9082 -78.0659 288° West  Level FlightAware Approximate
Sat 07:24:49 PM 38.8800 -77.8781 263° West 260 299 16,800  Level Washington Center
Sat 07:25:00 PM 38.9427 -78.1853 303° West  Level FlightAware Approximate
Sat 07:25:50 PM 38.8847 -77.9819 273° West 300 345 18,900  Level Washington Center
Sat 07:26:51 PM 38.8583 -78.1003 254° West 347 399 20,900 2,281 Climbing Washington Center
Sat 07:27:51 PM 38.8200 -78.2486 252° West 361 415 23,500 2,262 Climbing Washington Center
Sat 07:28:53 PM 38.8058 -78.3814 262° West 371 427 25,500 1,920 Climbing Washington Center
Sat 07:29:56 PM 38.8053 -78.5125 270° West 372 428 27,500 1,742 Climbing Washington Center
Sat 07:30:57 PM 38.8175 -78.6444 277° West 372 428 29,100 1,742 Climbing Washington Center
Sat 07:32:00 PM 38.8256 -78.7781 274° West 373 429 31,100 1,887 Climbing Washington Center
Sat 07:33:01 PM 38.8314 -78.9094 273° West 371 427 33,000 1,820 Climbing Washington Center
Sat 07:34:02 PM 38.8372 -79.0350 273° West 357 411 34,800 1,488 Climbing Washington Center
Sat 07:35:06 PM 38.8447 -79.1583 275° West 353 406 36,100 1,248 Climbing Washington Center
Sat 07:36:07 PM 38.8686 -79.3028 282° West 348 400 37,400 942 Climbing Washington Center
Sat 07:37:07 PM 38.8878 -79.4261 281° West 349 402 38,000 290 Climbing Washington Center
Sat 07:38:11 PM 38.9064 -79.5517 281° West 353 406 38,000  Level Washington Center
Sat 07:39:11 PM 38.9269 -79.6844 281° West 351 404 38,000  Level Washington Center
Sat 07:40:13 PM 38.9453 -79.8022 281° West 347 399 38,000  Level Washington Center
Sat 07:41:13 PM 38.9625 -79.9208 281° West 347 399 38,000  Level Washington Center
Sat 07:42:17 PM 38.9800 -80.0406 281° West 348 400 38,000  Level Washington Center
Sat 07:43:19 PM 39.0008 -80.1847 281° West 351 404 38,000  Level Washington Center
Sat 07:44:19 PM 39.0178 -80.2928 281° West 351 404 38,000  Level Washington Center
Sat 07:45:19 PM 39.0350 -80.4175 280° West 353 406 38,000  Level Washington Center
Sat 07:46:23 PM 39.0706 -80.5597 288° West 352 405 38,000  Level Washington Center
Sat 07:47:24 PM 39.1033 -80.6758 290° West 348 400 38,000  Level Washington Center
Sat 07:48:25 PM 39.1347 -80.7936 289° West 348 400 38,000  Level Washington Center
Sat 07:49:26 PM 39.1681 -80.9125 290° West 348 400 38,000  Level Washington Center
Sat 07:50:30 PM 39.2006 -81.0314 289° West 350 403 38,000  Level Washington Center
Sat 07:51:31 PM 39.2328 -81.1519 289° West 351 404 38,000  Level Washington Center
Sat 07:52:32 PM 39.2644 -81.2703 289° West 351 404 38,000  Level Washington Center
Sat 07:53:44 PM 39.3075 -81.4250 290° West 352 405 38,000  Level Indianapolis Center
Sat 07:54:45 PM 39.3383 -81.5444 288° West 352 405 38,000  Level Indianapolis Center
Sat 07:55:46 PM 39.3714 -81.6614 290° West 351 404 38,000  Level Indianapolis Center
Sat 07:56:47 PM 39.4011 -81.7786 288° West 350 403 38,000  Level Indianapolis Center
Sat 07:57:48 PM 39.4328 -81.8956 289° West 347 399 38,000  Level Indianapolis Center
Sat 07:58:49 PM 39.4639 -82.0119 289° West 346 398 38,000  Level Indianapolis Center
Sat 07:59:50 PM 39.4956 -82.1364 288° West 346 398 38,000  Level Indianapolis Center
Sat 08:00:51 PM 39.5267 -82.2531 289° West 345 397 38,000  Level Indianapolis Center
Sat 08:01:52 PM 39.5572 -82.3697 289° West 345 397 38,000  Level Indianapolis Center
Sat 08:02:53 PM 39.5939 -82.5128 288° West 346 398 38,000  Level Indianapolis Center
Sat 08:03:54 PM 39.6247 -82.6303 289° West 346 398 38,000  Level Indianapolis Center
Sat 08:04:56 PM 39.6544 -82.7492 288° West 346 398 38,000  Level Indianapolis Center
Sat 08:05:56 PM 39.6842 -82.8683 288° West 346 398 38,000  Level Indianapolis Center
Sat 08:06:57 PM 39.7144 -82.9872 288° West 346 398 38,000  Level Indianapolis Center
Sat 08:07:58 PM 39.7447 -83.1069 288° West 347 399 38,000  Level Indianapolis Center
Sat 08:08:59 PM 39.7750 -83.2275 288° West 348 400 38,000  Level Indianapolis Center
Sat 08:10:00 PM 39.8050 -83.3483 288° West 349 402 38,000  Level Indianapolis Center
Sat 08:11:01 PM 39.8331 -83.4647 287° West 350 403 38,000  Level Indianapolis Center
Sat 08:12:02 PM 39.8631 -83.5867 288° West 351 404 38,000  Level Indianapolis Center
Sat 08:13:03 PM 39.8972 -83.7233 288° West 351 404 38,000  Level Indianapolis Center
Sat 08:14:04 PM 39.9269 -83.8436 288° West 350 403 38,000  Level Indianapolis Center
Sat 08:15:05 PM 39.9561 -83.9631 288° West 350 403 38,000  Level Indianapolis Center
Sat 08:16:06 PM 39.9861 -84.0844 288° West 350 403 38,000  Level Indianapolis Center
Sat 08:17:07 PM 40.0156 -84.2072 287° West 351 404 38,000  Level Indianapolis Center
Sat 08:18:08 PM 40.0450 -84.3303 287° West 353 406 38,000  Level Indianapolis Center
Sat 08:19:09 PM 40.0739 -84.4539 287° West 354 407 38,000  Level Indianapolis Center
Sat 08:20:09 PM 40.1042 -84.5786 288° West 356 410 38,000  Level Indianapolis Center
Sat 08:21:10 PM 40.1322 -84.7033 286° West 357 411 38,000  Level Indianapolis Center
Sat 08:22:11 PM 40.1689 -84.8528 288° West 358 412 38,000  Level Indianapolis Center
Sat 08:23:12 PM 40.1936 -84.9625 286° West 358 412 38,000  Level Indianapolis Center
Sat 08:24:13 PM 40.2228 -85.0867 287° West 358 412 38,000  Level Indianapolis Center
Sat 08:25:14 PM 40.2508 -85.2106 287° West 358 412 38,000  Level Indianapolis Center
Sat 08:26:15 PM 40.2797 -85.3344 287° West 358 412 38,000  Level Indianapolis Center
Sat 08:27:16 PM 40.3122 -85.4836 286° West 358 412 38,000  Level Indianapolis Center
Sat 08:28:17 PM 40.3414 -85.6086 287° West 358 412 38,000  Level Indianapolis Center
Sat 08:29:18 PM 40.3706 -85.7339 287° West 359 413 38,000  Level Indianapolis Center
Sat 08:30:18 PM 40.3983 -85.8594 286° West 360 414 38,000  Level Indianapolis Center
Sat 08:31:19 PM 40.4261 -85.9836 286° West 359 413 38,000  Level Indianapolis Center
Sat 08:32:20 PM 40.4522 -86.1064 286° West 358 412 38,000  Level Indianapolis Center
Sat 08:33:21 PM 40.4803 -86.2294 287° West 356 410 38,000  Level Indianapolis Center
Sat 08:34:22 PM 40.5067 -86.3528 286° West 355 409 38,000  Level Indianapolis Center
Sat 08:35:23 PM 40.5331 -86.4761 286° West 355 409 38,000  Level Indianapolis Center
Sat 08:36:24 PM 40.5617 -86.6017 287° West 355 409 38,000  Level Indianapolis Center
Sat 08:37:25 PM 40.5875 -86.7281 285° West 356 410 38,000  Level Indianapolis Center
Sat 08:38:25 PM 40.6197 -86.8786 286° West 357 411 38,000  Level Indianapolis Center
Sat 08:39:26 PM 40.6469 -87.0036 286° West 357 411 38,000  Level Indianapolis Center
Sat 08:40:50 PM 40.6808 -87.1686 285° West 357 411 38,000  Level Chicago Center
Sat 08:41:51 PM 40.7081 -87.2956 286° West 357 411 38,000  Level Chicago Center
Sat 08:42:52 PM 40.7339 -87.4214 285° West 356 410 38,000  Level Chicago Center
Sat 08:43:53 PM 40.7597 -87.5469 285° West 356 410 38,000  Level Chicago Center
Sat 08:44:54 PM 40.7817 -87.6747 283° West 357 411 38,000  Level Chicago Center
Sat 08:45:55 PM 40.8033 -87.8308 280° West 358 412 38,000  Level Chicago Center
Sat 08:46:57 PM 40.8217 -87.9617 281° West 359 413 38,000  Level Chicago Center
Sat 08:47:58 PM 40.8386 -88.0917 280° West 359 413 38,000  Level Chicago Center
Sat 08:48:59 PM 40.8556 -88.2214 280° West 359 413 38,000  Level Chicago Center
Sat 08:50:00 PM 40.8728 -88.3522 280° West 359 413 38,000  Level Chicago Center
Sat 08:51:01 PM 40.8908 -88.4819 280° West 359 413 38,000  Level Chicago Center
Sat 08:52:02 PM 40.9069 -88.6131 279° West 359 413 38,000  Level Chicago Center
Sat 08:53:03 PM 40.9244 -88.7450 280° West 360 414 38,000  Level Chicago Center
Sat 08:54:04 PM 40.9397 -88.8661 280° West 360 414 38,000  Level Chicago Center
Sat 08:55:05 PM 40.9561 -88.9967 279° West 360 414 38,000  Level Chicago Center
Sat 08:56:07 PM 40.9761 -89.1569 279° West 368 423 38,000  Level Chicago Center
Sat 08:57:08 PM 40.9922 -89.2883 279° West 367 422 38,000  Level Chicago Center
Sat 08:58:09 PM 41.0081 -89.4197 279° West 365 420 38,000  Level Chicago Center
Sat 08:59:10 PM 41.0233 -89.5500 279° West 363 418 38,000  Level Chicago Center
Sat 09:00:11 PM 41.0400 -89.6828 279° West 364 419 38,000  Level Chicago Center
Sat 09:01:12 PM 41.0558 -89.8164 279° West 366 421 38,000  Level Chicago Center
Sat 09:02:13 PM 41.0706 -89.9497 278° West 367 422 38,000  Level Chicago Center
Sat 09:03:15 PM 41.0861 -90.0825 279° West 368 423 38,000  Level Chicago Center
Sat 09:04:16 PM 41.1042 -90.2425 279° West 368 423 38,000  Level Chicago Center
Sat 09:05:17 PM 41.1181 -90.3803 278° West 374 430 38,000  Level Chicago Center
Sat 09:06:18 PM 41.1336 -90.5144 279° West 373 429 38,000  Level Chicago Center
Sat 09:07:19 PM 41.1483 -90.6519 278° West 374 430 38,000  Level Chicago Center
Sat 09:08:21 PM 41.1603 -90.7900 277° West 376 433 38,000  Level Chicago Center
Sat 09:09:22 PM 41.1619 -90.9294 271° West 378 435 38,000  Level Chicago Center
Sat 09:10:23 PM 41.1644 -91.0708 271° West 380 437 38,000  Level Chicago Center
Sat 09:11:24 PM 41.1667 -91.2117 271° West 381 438 38,000  Level Chicago Center
Sat 09:12:25 PM 41.1686 -91.3522 271° West 381 438 38,000  Level Chicago Center
Sat 09:13:26 PM 41.1708 -91.4919 271° West 381 438 38,000  Level Chicago Center
Sat 09:14:27 PM 41.1733 -91.6592 271° West 380 437 38,000  Level Chicago Center
Sat 09:15:28 PM 41.1753 -91.7833 271° West 379 436 38,000  Level Chicago Center
Sat 09:16:30 PM 41.1772 -91.9217 271° West 379 436 38,000  Level Chicago Center
Sat 09:17:31 PM 41.1786 -92.0586 271° West 379 436 38,000  Level Chicago Center
Sat 09:18:32 PM 41.1794 -92.2253 270° West 379 436 38,000  Level Chicago Center
Sat 09:19:33 PM 41.1808 -92.3611 271° West 378 435 38,000  Level Chicago Center
Sat 09:20:34 PM 41.1811 -92.4972 270° West 376 433 38,000  Level Chicago Center
Sat 09:21:35 PM 41.1817 -92.6333 270° West 376 433 38,000  Level Chicago Center
Sat 09:22:13 PM 41.1819 -92.7158 270° West 375 432 38,000  Level Minneapolis Center
Sat 09:23:14 PM 41.1825 -92.8536 270° West 375 432 38,000  Level Minneapolis Center
Sat 09:24:15 PM 41.1831 -92.9914 270° West 376 433 38,000  Level Minneapolis Center
Sat 09:25:16 PM 41.1828 -93.1583 270° West 379 436 38,000  Level Minneapolis Center
Sat 09:26:18 PM 41.1822 -93.2939 270° West 378 435 38,000  Level Minneapolis Center
Sat 09:27:19 PM 41.1819 -93.4333 270° West 378 435 38,000  Level Minneapolis Center
Sat 09:28:20 PM 41.1819 -93.5717 270° West 378 435 38,000  Level Minneapolis Center
Sat 09:29:21 PM 41.1803 -93.7094 269° West 378 435 38,000  Level Minneapolis Center
Sat 09:30:23 PM 41.1803 -93.8475 270° West 378 435 38,000  Level Minneapolis Center
Sat 09:31:24 PM 41.1800 -93.9856 270° West 378 435 38,000  Level Minneapolis Center
Sat 09:32:25 PM 41.1772 -94.1547 269° West 381 438 38,000  Level Minneapolis Center
Sat 09:33:26 PM 41.1775 -94.2758 270° West 381 438 38,000  Level Minneapolis Center
Sat 09:34:27 PM 41.1750 -94.4189 269° West 382 440 38,000  Level Minneapolis Center
Sat 09:35:28 PM 41.1733 -94.5897 269° West 384 442 38,000  Level Minneapolis Center
Sat 09:36:30 PM 41.1711 -94.7317 269° West 386 444 38,000  Level Minneapolis Center
Sat 09:37:31 PM 41.1694 -94.8717 269° West 385 443 38,000  Level Minneapolis Center
Sat 09:38:32 PM 41.1675 -95.0119 269° West 384 442 38,000  Level Minneapolis Center
Sat 09:39:33 PM 41.1647 -95.1542 269° West 384 442 38,000  Level Minneapolis Center
Sat 09:40:34 PM 41.1619 -95.2969 269° West 384 442 38,000  Level Minneapolis Center
Sat 09:41:35 PM 41.1586 -95.4408 268° West 386 444 38,000  Level Minneapolis Center
Sat 09:42:36 PM 41.1558 -95.5847 269° West 387 445 38,000  Level Minneapolis Center
Sat 09:43:37 PM 41.1539 -95.7192 269° West 388 447 38,000  Level Minneapolis Center
Sat 09:44:38 PM 41.1489 -95.8931 268° West 391 450 38,000  Level Minneapolis Center
Sat 09:45:39 PM 41.1447 -96.0364 268° West 391 450 38,000  Level Minneapolis Center
Sat 09:46:40 PM 41.1417 -96.1800 268° West 390 449 38,000  Level Minneapolis Center
Sat 09:47:41 PM 41.1383 -96.3208 268° West 386 444 38,000  Level Minneapolis Center
Sat 09:48:42 PM 41.1336 -96.4522 267° West 386 444 38,000  Level Minneapolis Center
Sat 09:49:43 PM 41.1303 -96.5936 268° West 385 443 38,000  Level Minneapolis Center
Sat 09:50:44 PM 41.1247 -96.7342 267° West 384 442 38,000  Level Minneapolis Center
Sat 09:51:45 PM 41.1203 -96.8756 268° West 383 441 38,000  Level Minneapolis Center
Sat 09:52:46 PM 41.1156 -97.0200 268° West 388 447 38,000  Level Minneapolis Center
Sat 09:53:47 PM 41.1097 -97.1650 267° West 391 450 38,000  Level Minneapolis Center
Sat 09:54:47 PM 41.1042 -97.3428 268° West 397 457 38,000 50 Level Minneapolis Center
Sat 09:55:48 PM 41.0992 -97.4711 267° West 399 459 38,100  Climbing Minneapolis Center
Sat 09:56:49 PM 41.0936 -97.6181 267° West 400 460 38,000 -49 Descending Minneapolis Center
Sat 09:57:50 PM 41.0878 -97.7639 267° West 399 459 38,000  Level Minneapolis Center
Sat 09:58:51 PM 41.0817 -97.9092 267° West 399 459 38,000  Level Minneapolis Center
Sat 09:59:52 PM 41.0744 -98.0844 267° West 399 459 38,000  Level Minneapolis Center
Sat 10:00:52 PM 41.0681 -98.2297 267° West 397 457 38,000  Level Minneapolis Center
Sat 10:01:53 PM 41.0589 -98.3753 265° West 397 457 38,000  Level Minneapolis Center
Sat 10:02:54 PM 41.0439 -98.5097 262° West 397 457 38,000  Level Minneapolis Center
Sat 10:03:55 PM 41.0269 -98.6533 261° West 397 457 38,000  Level Minneapolis Center
Sat 10:04:56 PM 41.0103 -98.8006 262° West 401 461 38,000  Level Minneapolis Center
Sat 10:05:57 PM 40.9944 -98.9458 262° West 401 461 38,000  Level Minneapolis Center
Sat 10:06:57 PM 40.9783 -99.0911 262° West 401 461 38,000  Level Minneapolis Center
Sat 10:07:58 PM 40.9583 -99.2614 261° West 401 461 38,000  Level Minneapolis Center
Sat 10:08:59 PM 40.9411 -99.4089 261° West 401 461 38,000  Level Minneapolis Center
Sat 10:10:00 PM 40.9239 -99.5553 261° West 402 463 38,000  Level Minneapolis Center
Sat 10:11:01 PM 40.9067 -99.7011 261° West 401 461 38,000  Level Minneapolis Center
Sat 10:12:01 PM 40.8889 -99.8461 261° West 401 461 38,000  Level Minneapolis Center
Sat 10:13:02 PM 40.8717 -99.9897 261° West 400 460 38,000  Level Minneapolis Center
Sat 10:14:03 PM 40.8533 -100.1347 261° West 400 460 38,000  Level Minneapolis Center
Sat 10:15:04 PM 40.8350 -100.2797 261° West 400 460 38,000  Level Minneapolis Center
Sat 10:16:04 PM 40.8161 -100.4264 260° West 401 461 38,000  Level Minneapolis Center
Sat 10:17:05 PM 40.7981 -100.5711 261° West 401 461 38,000  Level Minneapolis Center
Sat 10:18:28 PM 40.7683 -100.7631 259° West 402 463 38,000  Level Denver Center
Sat 10:19:29 PM 40.7422 -100.9244 258° West 399 459 38,000  Level Denver Center
Sat 10:20:30 PM 40.7203 -101.0597 258° West 397 457 38,000  Level Denver Center
Sat 10:21:31 PM 40.6969 -101.1958 257° West 397 457 38,000  Level Denver Center
Sat 10:22:32 PM 40.6692 -101.3553 257° West 397 457 38,000  Level Denver Center
Sat 10:23:33 PM 40.6444 -101.4928 257° West 402 463 38,000  Level Denver Center
Sat 10:24:34 PM 40.6206 -101.6308 257° West 403 464 38,000  Level Denver Center
Sat 10:25:35 PM 40.5903 -101.7919 256° West 404 465 38,000  Level Denver Center
Sat 10:26:36 PM 40.5658 -101.9306 257° West 406 467 38,000  Level Denver Center
Sat 10:27:37 PM 40.5408 -102.0697 257° West 406 467 38,000  Level Denver Center
Sat 10:28:50 PM 40.5061 -102.2531 256° West 406 467 38,000  Level Denver Center
Sat 10:29:51 PM 40.4806 -102.3911 256° West 406 467 38,000  Level Denver Center
Sat 10:30:52 PM 40.4506 -102.5508 256° West 406 467 38,000  Level Denver Center
Sat 10:31:53 PM 40.4258 -102.6786 256° West 406 467 38,000 -49 Level Denver Center
Sat 10:32:54 PM 40.3992 -102.8211 256° West 406 467 37,900 -1,672 Descending Denver Center
Sat 10:33:55 PM 40.3728 -102.9667 257° West 412 474 34,600 -3,590 Descending Denver Center
Sat 10:34:56 PM 40.3378 -103.1431 255° West 420 483 30,600 -3,074 Descending Denver Center
Sat 10:35:56 PM 40.3153 -103.2608 256° West 419 482 28,400 -2,557 Descending Denver Center
Sat 10:36:58 PM 40.2831 -103.4319 256° West 406 467 25,400 -2,705 Descending Denver Center
Sat 10:37:58 PM 40.2558 -103.5669 255° West 389 448 22,900 -2,182 Descending Denver Center
Sat 10:38:59 PM 40.2308 -103.6969 256° West 374 430 21,000 -1,869 Descending Denver Center
Sat 10:40:00 PM 40.2039 -103.8328 255° West 362 417 19,100 -1,672 Descending Denver Center
Sat 10:41:01 PM 40.2017 -103.9519 269° West 334 384 17,600 -1,377 Descending Denver Center
Sat 10:42:02 PM 40.1944 -104.0656 265° West 317 365 16,300 -1,426 Descending Denver Center
Sat 10:43:03 PM 40.1900 -104.1808 267° West 317 365 14,700 -1,672 Descending Denver Center
Sat 10:44:04 PM 40.1831 -104.2892 265° West 307 353 12,900 -1,770 Descending Denver Center
Sat 10:45:05 PM 40.1725 -104.4039 263° West 302 348 11,100 -1,574 Descending Denver Center
Sat 10:46:06 PM 40.1206 -104.4789 228° Southwest 280 322 9,700 -1,180 Descending Denver Center
Sat 10:47:07 PM 40.0764 -104.5439 228° Southwest 244 281 8,700 -1,140 Descending Denver Center
Sat 10:48:07 PM 40.0367 -104.6028 229° Southwest 222 255 7,400 -595 Descending Denver Center
Sat 10:49:08 PM 40.0028 -104.6531 229° Southwest 189 217 7,500 -393 Climbing Denver Center
Sat 10:50:09 PM 39.9631 -104.6853 212° Southwest 174 200 6,600 -836 Descending Denver Center
Sat 10:51:10 PM 39.9161 -104.6867 181° South 159 183 5,800 -590 Descending Denver Center
Sat 10:52:11 PM 39.8828 -104.6864 180° South 135 155 5,400 -393 Descending Denver Center

Login

Don't have an account? Register now (free) for customized features, flight alerts, and more!